createdAt,value
2022-12-18T00:02:00.761Z,9.80
2022-12-18T00:22:21.395Z,9.90
2022-12-18T00:32:25.465Z,9.90
2022-12-18T00:42:48.450Z,9.80
2022-12-18T00:52:52.740Z,9.60
2022-12-18T01:02:58.083Z,9.20
2022-12-18T01:13:01.809Z,9.10
2022-12-18T01:23:07.131Z,8.90
2022-12-18T01:33:11.049Z,8.80
2022-12-18T01:43:16.430Z,9.70
2022-12-18T01:53:24.906Z,9.60
2022-12-18T02:03:30.194Z,9.20
2022-12-18T02:13:43.528Z,8.90
2022-12-18T02:24:02.140Z,9.00
2022-12-18T02:34:10.693Z,8.80
2022-12-18T02:44:15.745Z,8.70
2022-12-18T02:54:32.413Z,8.70
2022-12-18T03:04:43.628Z,8.70
2022-12-18T03:14:54.207Z,9.00
2022-12-18T03:24:59.838Z,8.90
2022-12-18T03:35:07.844Z,8.90
2022-12-18T03:45:16.059Z,8.90
2022-12-18T03:55:23.344Z,8.90
2022-12-18T04:05:29.300Z,8.90
2022-12-18T04:15:37.132Z,9.10
2022-12-18T04:25:41.062Z,9.10
2022-12-18T04:35:46.485Z,9.00
2022-12-18T04:45:50.623Z,9.20
2022-12-18T04:56:05.577Z,9.20
2022-12-18T05:06:09.815Z,9.20
2022-12-18T05:16:16.301Z,9.20
2022-12-18T05:26:21.204Z,9.20
2022-12-18T05:36:26.621Z,9.20
2022-12-18T05:46:31.696Z,9.10
2022-12-18T05:56:37.028Z,9.10
2022-12-18T06:06:41.095Z,9.20
2022-12-18T06:16:46.432Z,9.10
2022-12-18T06:26:50.380Z,9.10
2022-12-18T06:36:55.667Z,9.10
2022-12-18T06:46:59.946Z,9.00
2022-12-18T06:57:05.206Z,9.00
2022-12-18T07:07:09.002Z,8.90
2022-12-18T07:17:14.240Z,8.90
2022-12-18T07:27:18.239Z,9.00
2022-12-18T07:37:23.589Z,9.00
2022-12-18T07:47:27.845Z,9.10
2022-12-18T07:57:50.125Z,9.30
2022-12-18T08:07:55.095Z,9.50
2022-12-18T08:18:00.857Z,9.70
2022-12-18T08:28:04.890Z,10.00
2022-12-18T08:38:10.141Z,10.30
2022-12-18T08:48:19.198Z,10.40
2022-12-18T08:58:27.281Z,10.60
2022-12-18T09:08:31.194Z,11.20
2022-12-18T09:18:36.378Z,11.90
2022-12-18T09:28:41.199Z,12.10
2022-12-18T09:38:46.870Z,12.70
2022-12-18T09:48:53.395Z,13.30
2022-12-18T09:59:01.656Z,13.70
2022-12-18T10:09:12.038Z,14.00
2022-12-18T10:19:40.466Z,14.50
2022-12-18T10:29:46.265Z,15.50
2022-12-18T10:40:10.522Z,16.10
2022-12-18T10:50:26.273Z,16.20
2022-12-18T11:00:37.941Z,16.40
2022-12-18T11:10:42.223Z,16.50
2022-12-18T11:20:58.279Z,16.90
2022-12-18T11:31:19.217Z,17.60
2022-12-18T11:41:50.348Z,17.60
2022-12-18T11:52:00.956Z,18.30
2022-12-18T12:02:21.031Z,18.10
2022-12-18T12:12:48.894Z,18.20
2022-12-18T12:23:00.975Z,18.60
2022-12-18T12:33:20.273Z,19.00
2022-12-18T12:43:33.484Z,19.10
2022-12-18T12:53:41.362Z,19.60
2022-12-18T13:03:56.466Z,19.10
2022-12-18T13:14:00.578Z,17.70
2022-12-18T13:24:25.276Z,17.50
2022-12-18T13:34:32.277Z,18.10
2022-12-18T13:44:41.937Z,18.00
2022-12-18T13:54:50.112Z,18.20
2022-12-18T14:04:57.281Z,18.60
2022-12-18T14:15:01.941Z,19.30
2022-12-18T14:25:19.138Z,20.10
2022-12-18T14:35:22.923Z,20.50
2022-12-18T14:45:43.373Z,19.00
2022-12-18T14:55:49.196Z,17.50
2022-12-18T15:05:54.567Z,16.80
2022-12-18T15:16:00.681Z,17.20
2022-12-18T15:26:10.037Z,17.10
2022-12-18T15:36:15.492Z,17.80
2022-12-18T15:46:22.987Z,17.30
2022-12-18T15:56:44.431Z,16.20
2022-12-18T16:17:16.129Z,14.80
2022-12-18T16:27:22.758Z,14.50
2022-12-18T16:37:26.543Z,14.40
2022-12-18T16:47:32.703Z,14.20
2022-12-18T16:57:36.709Z,14.00
2022-12-18T17:07:41.943Z,14.00
2022-12-18T17:17:46.360Z,13.20
2022-12-18T17:27:52.557Z,12.50
2022-12-18T17:37:56.534Z,12.10
2022-12-18T17:48:02.127Z,11.60
2022-12-18T17:58:06.070Z,11.40
2022-12-18T18:08:11.312Z,11.40
2022-12-18T18:18:15.132Z,11.00
2022-12-18T18:28:22.314Z,10.90
2022-12-18T18:38:26.376Z,10.80
2022-12-18T18:48:34.089Z,10.70
2022-12-18T18:58:39.889Z,10.60
2022-12-18T19:08:46.677Z,10.50
2022-12-18T19:18:50.771Z,10.80
2022-12-18T19:28:56.227Z,10.60
2022-12-18T19:39:02.574Z,10.50
2022-12-18T19:49:08.072Z,10.50
2022-12-18T19:59:12.718Z,10.60
2022-12-18T20:09:18.439Z,10.20
2022-12-18T20:19:23.254Z,10.10
2022-12-18T20:29:28.865Z,10.40
2022-12-18T20:39:32.885Z,10.40
2022-12-18T20:49:39.817Z,10.50
2022-12-18T20:59:49.880Z,11.00
2022-12-18T21:09:55.215Z,10.60
2022-12-18T21:19:59.049Z,10.40
2022-12-18T21:30:04.745Z,10.50
2022-12-18T21:40:09.739Z,10.30
2022-12-18T21:50:15.038Z,10.20
2022-12-18T22:00:19.868Z,10.10
2022-12-18T22:10:25.056Z,10.00
2022-12-18T22:20:29.830Z,9.70
2022-12-18T22:30:35.672Z,9.60
2022-12-18T22:40:39.405Z,9.40
2022-12-18T22:50:44.762Z,9.40
2022-12-18T23:00:48.725Z,9.30
2022-12-18T23:10:55.612Z,9.30
2022-12-18T23:20:59.418Z,9.20
2022-12-18T23:31:10.256Z,9.20
2022-12-18T23:41:16.937Z,9.20
2022-12-18T23:51:26.401Z,9.10
